Time;durP1;ratioP1;P1;durP2;ratioP2;P2;SDS_P1;SDS_P2;PMS_P1;PMS_P2;Temp;Humidity;BMP_temperature;BMP_pressure;BME280_temperature;BME280_humidity;BME280_pressure;Samples;Min_cycle;Max_cycle;Signal;HPM_P1;HPM_P2
2023/03/08 00:01:23;;;;;;;15.43;8.17;;;;;;;4.32;56.23;97390.97;4992965;28;20241;-67
2023/03/08 00:03:52;;;;;;;16.97;9.03;;;;;;;4.30;56.87;97398.88;4994287;28;20895;-67
2023/03/08 00:06:18;;;;;;;16.27;8.77;;;;;;;4.28;56.80;97408.53;4993461;28;20223;-67
2023/03/08 00:08:47;;;;;;;15.57;9.20;;;;;;;4.36;55.99;97393.16;4996514;28;20241;-67
2023/03/08 00:11:14;;;;;;;22.43;9.60;;;;;;;4.34;56.04;97404.56;4993719;28;20295;-66
2023/03/08 00:13:41;;;;;;;21.17;10.47;;;;;;;4.30;55.82;97404.03;4991684;28;20754;-67
2023/03/08 00:16:10;;;;;;;15.63;8.80;;;;;;;4.26;56.44;97411.25;4997614;28;20593;-67
2023/03/08 00:18:39;;;;;;;17.33;8.70;;;;;;;4.26;56.51;97406.09;4992754;28;20231;-67
2023/03/08 00:21:07;;;;;;;15.17;8.13;;;;;;;4.23;57.19;97390.91;4997830;28;20383;-67
2023/03/08 00:23:34;;;;;;;21.00;10.70;;;;;;;4.22;56.55;97372.94;4981193;28;20236;-67
2023/03/08 00:26:01;;;;;;;18.73;9.23;;;;;;;4.23;56.90;97366.81;4989513;28;20228;-67
2023/03/08 00:28:28;;;;;;;19.53;9.37;;;;;;;4.25;56.70;97372.66;4994115;28;20276;-67
2023/03/08 00:30:55;;;;;;;23.70;10.77;;;;;;;4.23;56.33;97371.97;4997126;28;20228;-67
2023/03/08 00:33:22;;;;;;;18.33;9.80;;;;;;;4.14;57.56;97371.88;4993173;28;20228;-67
2023/03/08 00:35:57;;;;;;;18.60;10.10;;;;;;;4.14;56.53;97358.16;5001884;28;20569;-67
2023/03/08 00:38:24;;;;;;;20.13;10.00;;;;;;;4.11;56.97;97361.81;4995615;28;20688;-67
2023/03/08 00:40:53;;;;;;;16.43;8.87;;;;;;;4.06;56.92;97360.63;5001656;28;20233;-67
2023/03/08 00:43:20;;;;;;;15.33;8.43;;;;;;;4.05;57.25;97359.81;4994678;28;20228;-67
2023/03/08 00:45:47;;;;;;;27.47;11.00;;;;;;;4.03;56.19;97358.34;4992085;28;20312;-67
2023/03/08 00:48:15;;;;;;;16.33;9.33;;;;;;;4.01;57.52;97357.66;4983167;28;20232;-67
2023/03/08 00:50:41;;;;;;;15.97;8.23;;;;;;;3.97;56.73;97360.53;4979180;28;20734;-67
2023/03/08 00:53:09;;;;;;;15.77;9.40;;;;;;;4.01;56.80;97361.03;4970138;28;20450;-66
2023/03/08 00:55:36;;;;;;;16.83;9.40;;;;;;;4.01;56.53;97355.88;4940746;28;20241;-66
2023/03/08 00:58:03;;;;;;;16.10;8.37;;;;;;;4.03;56.41;97346.22;4991693;28;20258;-67
2023/03/08 01:00:30;;;;;;;21.70;11.20;;;;;;;3.99;56.97;97343.13;5001501;28;20545;-66
2023/03/08 01:02:58;;;;;;;17.10;9.40;;;;;;;3.96;57.43;97327.06;5004776;28;20246;-66
2023/03/08 01:05:27;;;;;;;18.90;9.40;;;;;;;3.91;56.65;97332.69;4988735;28;21865;-67
2023/03/08 01:07:53;;;;;;;13.83;8.20;;;;;;;3.83;57.52;97335.94;4991038;28;20287;-67
2023/03/08 01:10:21;;;;;;;23.50;9.23;;;;;;;3.78;57.35;97324.44;4988154;28;20236;-67
2023/03/08 01:12:48;;;;;;;27.90;11.87;;;;;;;3.73;57.50;97311.13;4996685;28;20228;-67
2023/03/08 01:15:15;;;;;;;17.13;9.00;;;;;;;3.73;56.94;97298.22;4996561;28;20318;-67
2023/03/08 01:17:41;;;;;;;16.53;8.20;;;;;;;3.69;56.89;97295.13;4978957;28;20244;-67
2023/03/08 01:20:09;;;;;;;13.57;7.17;;;;;;;3.67;57.27;97297.03;4990241;28;20229;-67
2023/03/08 01:22:36;;;;;;;15.07;7.43;;;;;;;3.65;57.21;97291.19;4992808;28;20239;-67
2023/03/08 01:25:02;;;;;;;16.63;7.87;;;;;;;3.67;57.54;97282.34;4988663;28;20253;-67
2023/03/08 01:27:30;;;;;;;13.90;7.50;;;;;;;3.62;56.57;97287.09;5005411;28;20766;-67
2023/03/08 01:29:57;;;;;;;11.60;6.80;;;;;;;3.66;56.58;97272.16;4996927;28;20234;-67
2023/03/08 01:32:24;;;;;;;12.70;7.10;;;;;;;3.60;56.44;97276.13;4994069;28;20243;-67
2023/03/08 01:34:51;;;;;;;13.60;6.67;;;;;;;3.51;57.86;97269.22;4990610;28;20227;-67
2023/03/08 01:37:18;;;;;;;12.57;6.80;;;;;;;3.36;57.61;97259.31;4991659;28;20697;-67
2023/03/08 01:39:45;;;;;;;10.87;6.53;;;;;;;3.25;57.83;97257.72;4995510;28;20256;-67
2023/03/08 01:42:12;;;;;;;13.50;7.10;;;;;;;3.34;57.99;97255.28;4989907;28;20301;-67
2023/03/08 01:44:51;;;;;;;14.50;6.97;;;;;;;3.30;57.87;97238.44;4982158;28;20591;-66
2023/03/08 01:47:20;;;;;;;12.17;6.27;;;;;;;3.45;57.44;97252.53;4999853;28;20253;-66
2023/03/08 01:50:10;;;;;;;10.30;6.30;;;;;;;3.44;57.04;97247.50;4966562;28;20251;-67
2023/03/08 01:52:41;;;;;;;12.57;5.50;;;;;;;3.44;57.42;97245.75;4975071;28;20607;-67
2023/03/08 01:55:12;;;;;;;14.20;6.27;;;;;;;3.55;56.92;97242.16;4990878;28;21589;-67
2023/03/08 01:57:41;;;;;;;15.40;7.60;;;;;;;3.59;56.51;97248.69;4986911;28;20232;-67
2023/03/08 02:00:15;;;;;;;12.47;6.10;;;;;;;3.60;57.72;97229.66;4988259;28;20233;-67
2023/03/08 02:02:49;;;;;;;11.77;6.43;;;;;;;3.63;57.28;97238.91;4992835;28;20232;-67
2023/03/08 02:05:17;;;;;;;10.57;6.20;;;;;;;3.62;57.26;97235.50;4998104;28;20217;-67
2023/03/08 02:07:46;;;;;;;13.17;7.17;;;;;;;3.62;58.55;97235.50;5007920;28;20946;-65
2023/03/08 02:10:14;;;;;;;13.73;7.40;;;;;;;3.67;57.94;97227.34;5008021;28;20230;-65
2023/03/08 02:12:41;;;;;;;18.17;7.23;;;;;;;3.66;57.02;97226.53;5027809;28;20231;-65
2023/03/08 02:15:11;;;;;;;15.17;7.63;;;;;;;3.66;58.01;97223.16;5010843;28;20245;-65
2023/03/08 02:17:40;;;;;;;14.33;7.47;;;;;;;3.58;58.28;97208.34;5009041;28;20232;-66
2023/03/08 02:20:13;;;;;;;13.77;7.30;;;;;;;3.62;57.82;97211.47;5012224;28;20307;-66
2023/03/08 02:22:42;;;;;;;14.93;7.53;;;;;;;3.63;57.94;97200.19;5009987;28;20239;-66
2023/03/08 02:25:13;;;;;;;13.90;7.70;;;;;;;3.60;58.05;97195.31;5014629;28;20239;-66
2023/03/08 02:27:40;;;;;;;16.07;7.87;;;;;;;3.54;57.91;97182.03;5014429;28;20243;-66
2023/03/08 02:30:08;;;;;;;14.93;7.43;;;;;;;3.54;59.22;97181.22;5014837;28;20297;-66
2023/03/08 02:32:35;;;;;;;13.17;6.93;;;;;;;3.51;58.71;97177.16;5004665;28;20255;-66
2023/03/08 02:35:02;;;;;;;13.23;6.90;;;;;;;3.58;57.60;97177.38;5029506;28;20247;-66
2023/03/08 02:37:28;;;;;;;13.27;7.27;;;;;;;3.56;56.78;97168.19;4997752;28;20237;-66
2023/03/08 02:39:56;;;;;;;13.20;7.47;;;;;;;3.58;57.87;97174.00;5017157;28;20231;-66
2023/03/08 02:42:23;;;;;;;14.53;7.20;;;;;;;3.57;58.56;97157.69;5010457;28;20293;-65
2023/03/08 02:44:49;;;;;;;11.30;6.50;;;;;;;3.59;58.25;97142.09;5015202;28;20286;-67
2023/03/08 02:47:16;;;;;;;14.83;7.47;;;;;;;3.64;57.88;97151.03;5012125;28;20236;-65
2023/03/08 02:49:43;;;;;;;13.30;6.73;;;;;;;3.67;58.22;97143.00;5031858;28;20253;-66
2023/03/08 02:52:10;;;;;;;12.70;7.30;;;;;;;3.72;57.65;97136.59;5016233;28;20242;-65
2023/03/08 02:54:36;;;;;;;16.07;7.10;;;;;;;3.70;57.19;97126.41;5020129;28;20239;-65
2023/03/08 02:57:04;;;;;;;13.77;6.90;;;;;;;3.62;57.21;97126.31;5014310;28;20239;-65
2023/03/08 02:59:31;;;;;;;15.07;6.93;;;;;;;3.57;57.22;97125.94;5011345;28;20238;-65
2023/03/08 03:01:58;;;;;;;13.97;7.17;;;;;;;3.42;57.81;97130.75;5010533;28;20236;-65
2023/03/08 03:04:25;;;;;;;15.50;7.00;;;;;;;3.28;58.08;97113.97;5009382;28;20247;-66
2023/03/08 03:06:52;;;;;;;14.20;7.53;;;;;;;3.23;58.80;97104.91;5013529;28;20267;-66
2023/03/08 03:09:18;;;;;;;14.90;7.17;;;;;;;3.12;59.48;97081.88;5010603;28;20232;-66
2023/03/08 03:11:45;;;;;;;15.90;7.60;;;;;;;3.10;59.26;97074.28;5013919;28;20231;-66
2023/03/08 03:14:14;;;;;;;14.03;7.10;;;;;;;3.10;58.61;97065.72;5009328;28;20306;-66
2023/03/08 03:16:42;;;;;;;16.03;6.77;;;;;;;3.10;58.98;97066.56;5011443;28;20720;-66
2023/03/08 03:19:11;;;;;;;16.73;7.10;;;;;;;3.05;59.48;97057.63;5010343;28;20307;-66
2023/03/08 03:21:38;;;;;;;15.53;7.13;;;;;;;3.02;58.86;97057.91;4999406;28;20239;-66
2023/03/08 03:24:05;;;;;;;15.07;6.47;;;;;;;3.08;59.18;97067.63;5012618;28;20225;-66
2023/03/08 03:26:40;;;;;;;13.13;6.30;;;;;;;2.97;59.32;97070.41;5007743;28;20239;-66
2023/03/08 03:29:07;;;;;;;11.27;6.10;;;;;;;3.04;59.46;97074.03;5009080;28;20278;-66
2023/03/08 03:31:38;;;;;;;15.90;7.10;;;;;;;3.04;58.99;97072.28;5009134;28;20238;-65
2023/03/08 03:34:05;;;;;;;11.40;6.47;;;;;;;3.12;59.35;97073.34;5012776;28;20313;-65
2023/03/08 03:36:33;;;;;;;14.03;6.63;;;;;;;3.18;58.02;97063.25;5007006;28;20846;-64
2023/03/08 03:38:59;;;;;;;13.50;6.57;;;;;;;3.14;59.54;97066.28;5008911;28;20230;-64
2023/03/08 03:41:26;;;;;;;13.87;6.63;;;;;;;3.16;59.24;97066.94;5008049;28;20236;-64
2023/03/08 03:44:07;;;;;;;13.03;6.27;;;;;;;3.04;59.54;97064.56;5005068;28;20228;-64
2023/03/08 03:46:34;;;;;;;13.73;6.07;;;;;;;2.97;60.20;97063.50;5003683;28;20344;-66
2023/03/08 03:49:03;;;;;;;17.03;7.10;;;;;;;3.03;60.00;97054.38;5007728;28;21063;-66
2023/03/08 03:51:35;;;;;;;14.73;6.83;;;;;;;3.04;60.39;97058.56;4985271;28;21063;-67
2023/03/08 03:54:25;;;;;;;13.73;6.80;;;;;;;3.19;60.40;97062.31;4991415;28;20279;-67
2023/03/08 03:56:56;;;;;;;16.13;6.73;;;;;;;3.22;60.61;97050.88;5011620;28;20230;-66
2023/03/08 03:59:24;;;;;;;13.57;7.33;;;;;;;3.35;60.42;97064.25;5010125;28;20835;-66
2023/03/08 04:01:52;;;;;;;13.80;7.07;;;;;;;3.56;58.79;97047.72;5009119;28;20604;-67
2023/03/08 04:04:25;;;;;;;13.73;6.97;;;;;;;3.58;59.00;97037.25;5012234;28;20215;-66
2023/03/08 04:06:54;;;;;;;16.47;7.60;;;;;;;3.74;57.46;97037.41;5006322;28;20245;-66
2023/03/08 04:09:24;;;;;;;15.67;7.57;;;;;;;3.76;59.00;97052.75;5006625;28;20224;-67
2023/03/08 04:12:04;;;;;;;15.00;7.60;;;;;;;3.78;59.20;97056.00;5000088;28;20728;-66
2023/03/08 04:14:31;;;;;;;16.53;7.63;;;;;;;3.79;59.26;97045.50;5016525;28;20220;-67
2023/03/08 04:16:58;;;;;;;10.57;6.03;;;;;;;3.79;59.83;97037.78;5011179;28;20238;-67
2023/03/08 04:19:33;;;;;;;14.83;7.57;;;;;;;3.86;59.02;97026.84;5019194;28;20231;-64
2023/03/08 04:22:00;;;;;;;11.77;7.23;;;;;;;3.84;57.82;97022.66;5005244;28;20308;-64
2023/03/08 04:24:33;;;;;;;14.00;7.13;;;;;;;3.84;58.88;97014.13;5007365;28;20802;-64
2023/03/08 04:27:06;;;;;;;14.30;7.03;;;;;;;3.88;57.87;97014.63;5008166;28;20801;-65
2023/03/08 04:29:32;;;;;;;13.23;6.80;;;;;;;3.92;58.72;97003.88;5021302;28;20243;-65
2023/03/08 04:31:59;;;;;;;14.60;7.20;;;;;;;3.90;59.41;97015.28;5219402;23;20235;-55
2023/03/08 04:34:33;;;;;;;15.27;7.87;;;;;;;3.98;58.71;97005.03;4975829;28;20246;-56
2023/03/08 04:37:00;;;;;;;16.07;8.47;;;;;;;4.09;59.71;97004.78;4980197;28;20222;-59
2023/03/08 04:39:27;;;;;;;15.60;8.23;;;;;;;4.14;59.29;97005.16;4977915;28;20225;-56
2023/03/08 04:41:54;;;;;;;14.50;8.53;;;;;;;4.11;60.10;97012.41;4972120;28;20246;-56
2023/03/08 04:44:30;;;;;;;13.77;7.30;;;;;;;4.12;59.35;97006.28;4981915;28;20630;-56
2023/03/08 04:46:57;;;;;;;15.03;8.30;;;;;;;4.18;60.36;97013.44;4983449;28;20232;-56
2023/03/08 04:49:31;;;;;;;16.07;8.33;;;;;;;4.22;59.76;97014.75;4979971;28;20217;-56
2023/03/08 04:52:03;;;;;;;14.67;8.17;;;;;;;4.30;60.48;97003.66;4982604;28;20234;-56
2023/03/08 04:54:32;;;;;;;16.63;8.40;;;;;;;4.32;59.78;96998.31;4963737;28;20225;-57
2023/03/08 04:57:05;;;;;;;15.93;7.77;;;;;;;4.30;60.53;97001.06;4984043;28;20221;-55
2023/03/08 04:59:34;;;;;;;16.37;8.60;;;;;;;4.31;60.09;96989.78;4981062;28;20594;-55
2023/03/08 05:02:03;;;;;;;14.17;8.33;;;;;;;4.30;61.38;96967.50;4981870;28;20228;-53
2023/03/08 05:04:32;;;;;;;18.97;8.73;;;;;;;4.28;61.26;96977.97;4978386;28;20217;-54
2023/03/08 05:06:59;;;;;;;16.13;8.70;;;;;;;4.24;62.08;96966.31;4983601;28;20582;-54
2023/03/08 05:09:31;;;;;;;16.13;8.53;;;;;;;4.26;61.98;96974.72;4973449;28;20610;-56
2023/03/08 05:11:58;;;;;;;20.80;10.40;;;;;;;4.29;61.76;96982.16;4985578;28;20229;-54
2023/03/08 05:14:28;;;;;;;18.57;9.90;;;;;;;4.30;62.67;96970.06;4997732;28;20235;-54
2023/03/08 05:16:55;;;;;;;16.83;9.10;;;;;;;4.31;62.70;96958.78;4984004;28;20225;-56
2023/03/08 05:19:22;;;;;;;17.83;8.77;;;;;;;4.34;62.07;96970.56;4982700;28;20237;-53
2023/03/08 05:21:51;;;;;;;19.45;10.27;;;;;;;4.37;61.78;96965.09;4968807;28;20461;-53
2023/03/08 05:24:19;;;;;;;15.20;9.03;;;;;;;4.33;62.75;96967.19;4977658;28;20732;-55
2023/03/08 05:26:48;;;;;;;17.67;9.33;;;;;;;4.43;61.33;96974.81;4975021;28;20248;-53
2023/03/08 05:29:17;;;;;;;15.93;9.73;;;;;;;4.41;62.59;96967.25;4981059;28;20676;-56
2023/03/08 05:31:45;;;;;;;20.57;9.80;;;;;;;4.37;63.10;96967.69;4983330;28;20229;-55
2023/03/08 05:34:12;;;;;;;17.93;9.13;;;;;;;4.40;62.37;96969.97;4983567;28;20287;-56
2023/03/08 05:36:42;;;;;;;17.23;9.57;;;;;;;4.41;63.38;96967.25;4997076;28;20302;-54
2023/03/08 05:39:10;;;;;;;18.27;9.70;;;;;;;4.41;62.44;96959.50;4982618;28;20268;-55
2023/03/08 05:41:52;;;;;;;17.33;9.20;;;;;;;4.37;62.84;96950.41;4974678;28;20241;-56
2023/03/08 05:44:26;;;;;;;16.77;8.83;;;;;;;4.38;62.62;96943.47;4963191;28;20239;-56
2023/03/08 05:46:53;;;;;;;19.13;8.23;;;;;;;4.39;64.31;96955.41;4983998;28;20233;-54
2023/03/08 05:49:21;;;;;;;19.37;9.00;;;;;;;4.38;66.18;96953.81;4996224;28;20236;-55
2023/03/08 05:51:48;;;;;;;22.90;12.90;;;;;;;4.27;68.97;96947.13;4999096;28;20448;-55
2023/03/08 05:54:15;;;;;;;16.03;10.20;;;;;;;4.20;71.78;96943.53;4972281;28;20237;-54
2023/03/08 05:56:45;;;;;;;20.77;11.97;;;;;;;4.07;73.40;96933.63;4978391;28;20232;-54
2023/03/08 05:59:23;;;;;;;51.97;33.00;;;;;;;3.94;74.96;96932.25;4981957;28;20232;-54
2023/03/08 06:01:50;;;;;;;23.27;13.07;;;;;;;3.96;78.47;96942.41;4983764;28;20256;-54
2023/03/08 06:04:28;;;;;;;18.43;10.23;;;;;;;3.89;79.70;96941.38;4997058;28;20224;-56
2023/03/08 06:06:54;;;;;;;49.53;28.20;;;;;;;3.80;82.39;96943.91;4998856;28;20243;-55
2023/03/08 06:09:24;;;;;;;24.70;14.60;;;;;;;3.66;84.21;96954.78;4981252;28;20237;-57
2023/03/08 06:11:51;;;;;;;16.90;9.90;;;;;;;3.62;84.67;96940.56;4970571;28;20325;-55
2023/03/08 06:14:18;;;;;;;19.60;9.37;;;;;;;3.58;87.75;96932.28;4977954;28;20229;-56
2023/03/08 06:16:47;;;;;;;21.33;11.70;;;;;;;3.56;88.86;96925.66;4983829;28;20241;-55
2023/03/08 06:19:15;;;;;;;17.13;11.23;;;;;;;3.42;89.51;96930.38;4996856;28;20240;-56
2023/03/08 06:21:43;;;;;;;19.47;12.83;;;;;;;3.41;90.22;96918.44;4989157;28;20238;-55
2023/03/08 06:24:09;;;;;;;19.53;11.40;;;;;;;3.40;91.01;96906.50;4980535;28;20229;-55
2023/03/08 06:26:36;;;;;;;16.47;9.90;;;;;;;3.31;91.92;96902.22;4980976;28;20222;-57
2023/03/08 06:29:03;;;;;;;15.60;9.17;;;;;;;3.25;93.35;96898.44;4984297;28;20237;-56
2023/03/08 06:31:31;;;;;;;18.50;8.80;;;;;;;3.17;93.46;96894.03;4979399;28;20241;-57
2023/03/08 06:34:02;;;;;;;18.47;9.90;;;;;;;3.15;96.31;96887.44;4982152;28;20343;-57
2023/03/08 06:36:29;;;;;;;17.07;9.80;;;;;;;3.16;96.20;96873.56;4997328;28;20296;-56
2023/03/08 06:38:55;;;;;;;15.83;8.30;;;;;;;3.19;94.66;96868.09;4986971;28;20237;-55
2023/03/08 06:41:22;;;;;;;14.20;8.13;;;;;;;3.19;95.06;96862.94;4983837;28;20602;-55
2023/03/08 06:43:53;;;;;;;16.10;8.40;;;;;;;3.21;95.38;96853.28;4986895;28;20225;-56
2023/03/08 06:46:20;;;;;;;15.37;8.07;;;;;;;3.29;94.52;96835.31;4984171;28;20239;-57
2023/03/08 06:48:47;;;;;;;16.27;7.57;;;;;;;3.32;94.74;96837.59;4986902;28;20238;-59
2023/03/08 06:51:17;;;;;;;14.77;7.93;;;;;;;3.35;94.02;96829.56;4967406;28;20240;-55
2023/03/08 06:53:45;;;;;;;15.17;7.83;;;;;;;3.40;94.13;96824.75;5002700;28;20230;-59
2023/03/08 06:56:16;;;;;;;27.90;13.63;;;;;;;3.43;93.22;96828.81;4985974;28;20734;-58
2023/03/08 06:58:43;;;;;;;19.07;10.33;;;;;;;3.44;93.37;96827.88;4985485;28;20225;-56
2023/03/08 07:01:10;;;;;;;13.60;6.47;;;;;;;3.54;93.75;96825.19;4972396;28;20252;-55
2023/03/08 07:03:37;;;;;;;9.53;5.83;;;;;;;3.56;95.10;96825.84;4984395;28;20766;-56
2023/03/08 07:06:06;;;;;;;11.13;6.07;;;;;;;3.62;94.74;96816.69;4988160;28;20229;-55
2023/03/08 07:08:35;;;;;;;12.93;6.07;;;;;;;3.63;94.91;96818.31;4985069;28;20237;-56
2023/03/08 07:11:01;;;;;;;14.07;6.83;;;;;;;3.69;95.06;96810.78;4988086;28;20229;-56
2023/03/08 07:13:28;;;;;;;13.97;6.57;;;;;;;3.74;96.78;96804.34;4984337;28;20232;-56
2023/03/08 07:15:56;;;;;;;12.80;6.30;;;;;;;3.75;95.85;96787.91;4987919;28;20679;-54
2023/03/08 07:18:22;;;;;;;9.07;5.23;;;;;;;3.83;96.41;96785.38;4984564;28;20221;-55
2023/03/08 07:20:52;;;;;;;11.43;6.10;;;;;;;3.86;96.30;96777.31;4987414;28;20872;-54
2023/03/08 07:23:19;;;;;;;11.63;5.23;;;;;;;3.98;96.17;96770.09;4982739;28;20229;-53
2023/03/08 07:25:47;;;;;;;9.37;5.50;;;;;;;3.98;95.21;96777.84;4985892;28;20241;-56
2023/03/08 07:28:13;;;;;;;22.17;9.30;;;;;;;4.05;95.08;96750.44;4987756;28;20237;-55
2023/03/08 07:30:40;;;;;;;9.87;5.40;;;;;;;4.11;96.67;96742.06;4985299;28;20708;-56
2023/03/08 07:33:07;;;;;;;18.23;8.47;;;;;;;4.19;97.31;96730.97;5002283;28;20252;-56
2023/03/08 07:35:33;;;;;;;9.40;5.03;;;;;;;4.32;97.00;96716.78;4984678;28;20613;-54
2023/03/08 07:38:00;;;;;;;11.27;6.13;;;;;;;4.36;96.87;96708.56;4985241;28;20725;-55
2023/03/08 07:40:27;;;;;;;33.00;14.73;;;;;;;4.47;95.94;96696.31;4983034;28;20239;-57
2023/03/08 07:42:56;;;;;;;32.07;16.70;;;;;;;4.49;96.22;96690.00;4981407;28;20241;-54
2023/03/08 07:45:43;;;;;;;7.93;4.20;;;;;;;4.58;95.77;96678.72;4978028;28;20255;-56
2023/03/08 07:48:10;;;;;;;14.43;7.27;;;;;;;4.60;96.51;96675.16;4986527;28;20227;-56
2023/03/08 07:50:37;;;;;;;13.97;8.30;;;;;;;4.67;96.80;96691.63;4984597;28;20240;-56
2023/03/08 07:53:04;;;;;;;4.43;3.13;;;;;;;4.72;96.31;96694.53;4986762;28;20243;-57
2023/03/08 07:55:30;;;;;;;5.13;2.80;;;;;;;4.81;95.14;96698.75;4984018;28;20237;-57
2023/03/08 07:57:58;;;;;;;5.83;3.27;;;;;;;4.85;96.80;96683.72;4986977;28;20700;-57
2023/03/08 08:00:26;;;;;;;5.10;2.87;;;;;;;4.90;96.16;96685.81;4984504;28;20229;-53
2023/03/08 08:02:53;;;;;;;7.30;3.47;;;;;;;4.96;94.85;96675.63;4986019;28;20731;-56
2023/03/08 08:05:20;;;;;;;4.60;2.67;;;;;;;5.10;92.90;96686.28;4984213;28;20313;-56
2023/03/08 08:07:47;;;;;;;6.63;2.87;;;;;;;5.16;94.77;96698.56;4986731;28;20288;-54
2023/03/08 08:10:14;;;;;;;4.53;2.70;;;;;;;5.23;95.21;96696.94;4986842;28;20237;-56
2023/03/08 08:12:40;;;;;;;4.27;2.67;;;;;;;5.30;96.23;96695.28;4984301;28;20701;-55
2023/03/08 08:15:10;;;;;;;4.23;2.60;;;;;;;5.29;95.91;96691.09;4986563;28;20967;-56
2023/03/08 08:17:37;;;;;;;4.93;2.80;;;;;;;5.32;93.21;96701.09;4984257;28;20904;-55
2023/03/08 08:20:05;;;;;;;4.37;2.83;;;;;;;5.39;93.95;96695.28;4985576;28;20236;-53
2023/03/08 08:22:35;;;;;;;7.77;4.63;;;;;;;5.23;95.59;96688.38;4984075;28;20240;-52
2023/03/08 08:25:01;;;;;;;7.40;4.80;;;;;;;5.28;94.95;96705.00;4984721;28;20243;-55
2023/03/08 08:27:28;;;;;;;6.50;3.90;;;;;;;5.34;94.41;96713.06;4983812;28;20311;-56
2023/03/08 08:29:55;;;;;;;8.47;6.10;;;;;;;5.26;95.66;96685.44;4986376;28;20260;-56
2023/03/08 08:32:22;;;;;;;5.70;3.30;;;;;;;5.30;95.51;96684.94;4983135;28;20288;-54
2023/03/08 08:34:49;;;;;;;7.63;4.90;;;;;;;5.42;95.80;96682.81;4986532;28;20233;-56
2023/03/08 08:37:16;;;;;;;6.50;3.17;;;;;;;5.46;94.47;96663.38;4982812;28;20233;-56
2023/03/08 08:39:43;;;;;;;5.37;3.60;;;;;;;5.41;98.31;96678.59;4986612;28;20287;-56
2023/03/08 08:42:09;;;;;;;4.67;3.17;;;;;;;5.47;96.67;96670.19;4998935;28;20240;-56
2023/03/08 08:44:36;;;;;;;5.37;3.23;;;;;;;5.50;95.95;96666.47;4981688;28;20241;-56
2023/03/08 08:47:03;;;;;;;6.00;3.73;;;;;;;5.61;94.78;96666.09;4986482;28;20225;-56
2023/03/08 08:49:31;;;;;;;6.70;2.90;;;;;;;5.72;94.34;96648.59;4983476;28;20237;-55
2023/03/08 08:51:57;;;;;;;5.23;3.17;;;;;;;5.72;94.80;96646.00;4981015;28;20661;-57
2023/03/08 08:54:24;;;;;;;4.57;2.70;;;;;;;5.76;93.64;96644.69;4981391;28;20241;-54
2023/03/08 08:56:50;;;;;;;6.43;3.10;;;;;;;5.83;92.82;96630.06;4985850;28;21191;-54
2023/03/08 08:59:17;;;;;;;5.90;3.30;;;;;;;5.85;93.79;96632.50;4983073;28;20229;-56
2023/03/08 09:01:44;;;;;;;3.80;2.27;;;;;;;5.88;93.07;96621.81;4983910;28;20300;-57
2023/03/08 09:04:12;;;;;;;6.90;3.07;;;;;;;6.01;91.59;96627.25;4983360;28;20240;-58
2023/03/08 09:06:40;;;;;;;5.23;3.20;;;;;;;6.11;91.26;96628.81;4980782;28;20705;-57
2023/03/08 09:09:07;;;;;;;4.43;2.30;;;;;;;6.18;91.35;96607.22;4983888;28;20232;-57
2023/03/08 09:11:34;;;;;;;3.63;2.20;;;;;;;6.33;90.82;96617.66;4977991;28;20234;-58
2023/03/08 09:14:02;;;;;;;3.77;2.40;;;;;;;6.43;91.91;96625.19;4984508;28;20252;-58
2023/03/08 09:16:30;;;;;;;2.87;2.00;;;;;;;6.43;90.41;96616.59;4980970;28;20229;-58
2023/03/08 09:18:58;;;;;;;3.83;2.13;;;;;;;6.46;90.54;96627.44;4983708;28;20237;-59
2023/03/08 09:21:26;;;;;;;3.03;2.00;;;;;;;6.54;91.67;96617.97;4981055;28;20425;-59
2023/03/08 09:23:54;;;;;;;3.63;2.10;;;;;;;6.63;88.97;96625.50;4984301;28;20229;-58
2023/03/08 09:26:21;;;;;;;2.87;1.80;;;;;;;6.69;91.09;96636.97;4982703;28;20291;-55
2023/03/08 09:28:47;;;;;;;3.80;2.00;;;;;;;6.71;90.67;96624.63;4984095;28;20239;-58
2023/03/08 09:31:16;;;;;;;5.53;2.90;;;;;;;6.65;91.71;96628.72;4984048;28;21304;-57
2023/03/08 09:33:45;;;;;;;5.00;2.53;;;;;;;6.71;91.08;96608.25;4983049;28;20312;-58
2023/03/08 09:36:12;;;;;;;6.77;2.63;;;;;;;6.69;91.46;96620.59;4985217;28;20269;-55
2023/03/08 09:38:38;;;;;;;7.93;3.60;;;;;;;6.70;92.04;96627.41;4982942;28;20240;-58
2023/03/08 09:41:20;;;;;;;3.27;1.80;;;;;;;6.75;91.63;96614.72;4984687;28;20240;-57
2023/03/08 09:43:56;;;;;;;8.40;4.13;;;;;;;6.86;92.05;96614.28;4979603;28;20352;-58
2023/03/08 09:46:28;;;;;;;2.73;1.77;;;;;;;7.07;92.43;96612.78;4979291;28;20217;-58
2023/03/08 09:48:59;;;;;;;3.47;1.70;;;;;;;7.17;89.08;96630.66;4982985;28;20697;-59
2023/03/08 09:51:33;;;;;;;3.00;1.37;;;;;;;7.20;89.42;96606.97;4996551;28;20245;-58
2023/03/08 09:54:05;;;;;;;4.47;2.17;;;;;;;7.13;89.40;96609.47;4982957;28;20721;-55
2023/03/08 09:56:37;;;;;;;2.30;1.47;;;;;;;7.16;90.09;96609.13;4979944;28;20222;-54
2023/03/08 09:59:08;;;;;;;2.37;1.47;;;;;;;7.18;89.07;96604.56;4983143;28;20620;-54
2023/03/08 10:01:38;;;;;;;3.50;2.43;;;;;;;7.27;89.75;96618.25;4981010;28;21795;-56
2023/03/08 10:04:22;;;;;;;2.57;1.37;;;;;;;7.24;89.77;96616.81;4983320;28;20225;-56
2023/03/08 10:07:00;;;;;;;4.13;1.07;;;;;;;7.35;89.61;96610.38;4982008;28;20635;-57
2023/03/08 10:09:32;;;;;;;4.90;2.63;;;;;;;7.44;90.69;96600.69;4980832;28;20742;-54
2023/03/08 10:12:15;;;;;;;5.40;2.50;;;;;;;7.51;89.51;96580.78;4984172;28;20747;-57
2023/03/08 10:14:45;;;;;;;4.13;2.13;;;;;;;7.66;89.28;96588.56;4985260;28;20240;-57
2023/03/08 10:17:16;;;;;;;3.70;1.30;;;;;;;7.72;87.88;96587.03;4988830;28;20233;-56
2023/03/08 10:19:48;;;;;;;2.30;0.90;;;;;;;7.79;87.19;96598.28;4969874;28;20241;-56
2023/03/08 10:22:22;;;;;;;2.63;0.90;;;;;;;7.90;87.50;96567.63;4985717;28;20249;-56
2023/03/08 10:24:55;;;;;;;3.13;1.90;;;;;;;8.01;87.77;96580.13;4986306;28;20225;-53
2023/03/08 10:27:25;;;;;;;4.13;2.13;;;;;;;8.13;86.40;96583.03;4985739;28;20752;-56
2023/03/08 10:29:53;;;;;;;2.40;1.40;;;;;;;8.17;86.90;96584.28;4988400;28;20248;-57
2023/03/08 10:32:20;;;;;;;21.20;12.13;;;;;;;8.18;87.37;96593.69;4984780;28;20235;-56
2023/03/08 10:34:47;;;;;;;3.27;1.97;;;;;;;8.15;87.23;96591.44;4988060;28;20233;-56
2023/03/08 10:37:15;;;;;;;5.87;4.30;;;;;;;8.22;87.22;96571.53;4988176;28;20229;-56
2023/03/08 10:39:51;;;;;;;3.10;2.27;;;;;;;8.28;86.94;96581.19;4986411;28;20224;-52
2023/03/08 10:42:21;;;;;;;2.43;1.73;;;;;;;8.21;88.39;96595.91;4983330;28;20249;-55
2023/03/08 10:44:55;;;;;;;3.67;1.77;;;;;;;8.28;88.52;96581.19;4980521;28;20242;-56
2023/03/08 10:47:24;;;;;;;2.27;1.40;;;;;;;8.32;86.67;96586.00;4985135;28;20218;-56
2023/03/08 10:50:11;;;;;;;3.70;1.40;;;;;;;8.31;86.81;96598.22;4988042;28;20259;-54
2023/03/08 10:52:38;;;;;;;2.67;1.33;;;;;;;8.35;89.05;96598.63;4984549;28;20247;-55
2023/03/08 10:55:10;;;;;;;3.43;1.10;;;;;;;8.45;86.72;96582.72;4987848;28;20784;-55
2023/03/08 10:57:39;;;;;;;2.47;1.47;;;;;;;8.50;86.59;96595.97;4985352;28;20288;-55
2023/03/08 11:00:25;;;;;;;1.57;1.10;;;;;;;8.52;86.30;96591.38;4986994;28;20297;-56
2023/03/08 11:03:02;;;;;;;1.97;1.07;;;;;;;8.63;85.56;96590.88;4984872;28;20246;-56
2023/03/08 11:05:28;;;;;;;1.97;1.27;;;;;;;8.76;87.84;96590.19;4984744;28;20677;-55
2023/03/08 11:07:58;;;;;;;2.70;1.60;;;;;;;8.85;85.99;96606.44;4986221;28;20293;-55
2023/03/08 11:10:26;;;;;;;1.73;1.20;;;;;;;8.92;85.17;96594.28;4983657;28;20241;-56
2023/03/08 11:13:01;;;;;;;2.37;1.33;;;;;;;8.95;84.43;96588.72;4986455;28;20241;-55
2023/03/08 11:15:32;;;;;;;1.37;1.10;;;;;;;9.03;85.79;96590.34;4983869;28;20235;-55
2023/03/08 11:18:06;;;;;;;1.70;1.10;;;;;;;8.96;85.67;96605.94;4987229;28;20282;-55
2023/03/08 11:20:40;;;;;;;2.53;1.47;;;;;;;8.99;85.57;96613.34;4985269;28;20241;-56
2023/03/08 11:23:20;;;;;;;1.90;1.10;;;;;;;9.05;85.71;96610.97;4986093;28;20251;-56
2023/03/08 11:25:54;;;;;;;2.20;1.10;;;;;;;9.20;83.91;96608.25;4985216;28;20227;-56
2023/03/08 11:28:33;;;;;;;1.53;0.80;;;;;;;9.18;83.88;96629.28;4984844;28;20316;-56
2023/03/08 11:31:13;;;;;;;1.77;1.03;;;;;;;9.21;84.54;96635.91;4987566;28;20250;-54
2023/03/08 11:34:07;;;;;;;1.83;1.20;;;;;;;9.23;83.92;96624.31;4984043;28;20231;-56
2023/03/08 11:36:41;;;;;;;2.37;1.23;;;;;;;9.26;83.92;96613.53;4984840;28;20286;-56
2023/03/08 11:39:18;;;;;;;2.07;1.40;;;;;;;9.30;84.16;96617.34;4986613;28;20725;-55
2023/03/08 11:41:54;;;;;;;2.00;1.03;;;;;;;9.27;85.27;96611.69;4984692;28;20325;-56
2023/03/08 11:44:38;;;;;;;2.40;1.43;;;;;;;9.30;84.80;96604.31;4983983;28;20294;-53
2023/03/08 11:47:43;;;;;;;3.17;2.43;;;;;;;9.36;85.80;96612.38;4986056;28;20708;-55